KJFK/JFK METAR and TAF weather

Enter ICAO airport designator
Station Type Date Time Source
KJFK METAR 2019/12/08 18:51 UTC NOAA

KJFK 081851Z 20011KT 10SM FEW040 SCT220 BKN260 05/M02 A3048 RMK AO2 SLP320 T00501022 $


Station Type Date Time Source
KJFK Decoded METAR 2019/12/08 18:51 UTC NOAA

KENNEDY INTERNATIONAL AIRPORT , NY, United States (KJFK) 40-38N 073-46W 9M
Dec 08, 2019 - 01:51 PM EST / 2019.12.08 1851 UTC
Wind: from the SSW (200 degrees) at 13 MPH (11 KT):0
Visibility: 10 mile(s):0
Sky conditions: mostly cloudy
Temperature: 41.0 F (5.0 C)
Dew Point: 28.0 F (-2.2 C)
Relative Humidity: 59%
Pressure (altimeter): 30.48 in. Hg (1032 hPa)
ob: KJFK 081851Z 20011KT 10SM FEW040 SCT220 BKN260 05/M02 A3048 RMK AO2 SLP320 T00501022
cycle: 19

Station Type Date Time Source
KJFK TAF 2019/12/08 18:57 UTC NOAA

TAF
AMD KJFK 081754Z 0818/0924 18010G18KT P6SM SCT250
FM082100 19012G18KT P6SM FEW035 BKN250
FM090500 20008KT P6SM SCT025 BKN035
TEMPO 0907/0911 6SM -RA SCT007 BKN025
FM091100 15004KT 5SM -RA BR BKN007
FM091600 17015G25KT 3SM -RA BR BKN006 OVC010 WS020/20050KT
FM092100 18020G30KT 2SM RA BR BKN006 OVC010 WS020/20050KT

Example: see airport list